Time;durP1;ratioP1;P1;durP2;ratioP2;P2;SDS_P1;SDS_P2;PMS_P1;PMS_P2;Temp;Humidity;BMP_temperature;BMP_pressure;BME280_temperature;BME280_humidity;BME280_pressure;Samples;Min_cycle;Max_cycle;Signal;HPM_P1;HPM_P2
2023/01/05 00:01:42;;;;;;;20.70;9.55;;;;;;;11.43;75.83;98475.59;5337213;27;20036;-81
2023/01/05 00:04:09;;;;;;;20.30;10.05;;;;;;;11.46;74.88;98474.63;5337227;27;20040;-82
2023/01/05 00:06:36;;;;;;;21.60;10.35;;;;;;;11.41;75.02;98473.97;5338041;27;20029;-82
2023/01/05 00:09:04;;;;;;;22.40;10.18;;;;;;;9.99;82.08;98466.22;5337312;27;20074;-81
2023/01/05 00:22:53;;;;;;;21.45;10.43;;;;;;;11.80;74.31;98477.59;5337678;27;20021;-81
2023/01/05 00:25:21;;;;;;;21.58;10.15;;;;;;;11.08;76.78;98512.28;5337848;27;20041;-81
2023/01/05 00:27:50;;;;;;;18.73;9.80;;;;;;;11.37;75.71;98509.41;5338431;27;20114;-81
2023/01/05 00:30:36;;;;;;;20.12;9.88;;;;;;;10.92;77.78;98491.31;5338609;27;20080;-81
2023/01/05 00:33:03;;;;;;;18.98;9.60;;;;;;;11.37;76.92;98480.16;5339641;27;20063;-81
2023/01/05 00:35:30;;;;;;;20.35;9.63;;;;;;;11.34;77.18;98470.78;5338690;27;20024;-81
2023/01/05 00:37:57;;;;;;;22.35;10.27;;;;;;;11.06;78.58;98440.03;5337966;27;20025;-81
2023/01/05 00:40:23;;;;;;;20.23;10.30;;;;;;;10.88;80.50;98430.41;5337682;27;20033;-81
2023/01/05 00:42:50;;;;;;;22.30;10.40;;;;;;;11.25;79.28;98445.31;5337276;27;20735;-81
2023/01/05 00:45:18;;;;;;;19.52;9.65;;;;;;;11.56;77.17;98429.41;5338222;27;20063;-81
2023/01/05 00:47:45;;;;;;;20.83;10.25;;;;;;;11.26;78.24;98436.66;5336101;27;20021;-81
2023/01/05 00:50:15;;;;;;;21.17;9.60;;;;;;;11.11;79.15;98422.59;5337310;27;20029;-81
2023/01/05 00:52:43;;;;;;;21.98;10.05;;;;;;;11.13;79.37;98417.38;5339154;27;20021;-81
2023/01/05 00:55:10;;;;;;;20.12;10.35;;;;;;;11.02;80.27;98405.72;5319628;27;20021;-81
2023/01/05 00:57:37;;;;;;;18.62;9.68;;;;;;;11.02;80.49;98417.78;5337248;27;20102;-80
2023/01/05 01:00:10;;;;;;;18.52;8.23;;;;;;;10.04;85.77;98407.63;5337325;27;20075;-81
2023/01/05 01:02:36;;;;;;;19.48;9.60;;;;;;;9.13;92.58;98378.84;5336154;27;20021;-81
2023/01/05 01:05:04;;;;;;;;;;;;;;;9.00;94.76;98359.53;5336567;27;20025;-80
2023/01/05 01:07:30;;;;;;;18.77;8.37;;;;;;;8.78;97.99;98348.22;5337863;27;19974;-81
2023/01/05 01:09:57;;;;;;;18.52;8.57;;;;;;;8.99;96.71;98357.84;5337487;27;20021;-81
2023/01/05 01:12:24;;;;;;;19.95;9.88;;;;;;;9.08;95.81;98362.72;5339051;27;20032;-80
2023/01/05 01:14:51;;;;;;;;;;;;;;;9.50;94.11;98380.25;5337940;27;20049;-81
2023/01/05 01:17:18;;;;;;;22.42;10.32;;;;;;;9.85;91.20;98384.22;5339512;27;19947;-81
2023/01/05 01:19:46;;;;;;;21.75;10.55;;;;;;;10.02;89.17;98392.22;5339317;27;20025;-81
2023/01/05 01:22:13;;;;;;;21.05;9.82;;;;;;;10.68;86.02;98413.91;5340388;27;20021;-81
2023/01/05 01:24:40;;;;;;;24.02;10.57;;;;;;;10.95;83.46;98400.84;5339063;27;20027;-81
2023/01/05 01:27:07;;;;;;;19.83;10.15;;;;;;;11.02;82.44;98404.88;5339732;27;20075;-81
2023/01/05 01:29:34;;;;;;;21.77;10.52;;;;;;;11.64;79.48;98398.94;5338962;27;20080;-81
2023/01/05 01:32:01;;;;;;;20.17;9.48;;;;;;;11.71;78.65;98399.53;5339910;27;20021;-81
2023/01/05 01:34:28;;;;;;;20.92;9.77;;;;;;;11.74;78.11;98376.13;5339327;27;20031;-81
2023/01/05 01:36:55;;;;;;;18.60;9.55;;;;;;;11.46;79.60;98372.09;5340301;27;20029;-81
2023/01/05 01:39:22;;;;;;;19.65;9.05;;;;;;;11.32;79.62;98382.16;5339503;27;20029;-80
2023/01/05 01:42:03;;;;;;;19.90;9.60;;;;;;;10.17;85.64;98367.59;5339783;27;20794;-80
2023/01/05 01:44:50;;;;;;;19.42;10.68;;;;;;;9.91;87.57;98391.75;5339784;27;20051;-81
2023/01/05 01:47:27;;;;;;;22.65;10.80;;;;;;;9.93;90.23;98404.56;5339873;27;20032;-81
2023/01/05 01:49:54;;;;;;;21.08;9.85;;;;;;;10.38;86.12;98423.59;5338559;27;20066;-81
2023/01/05 01:52:23;;;;;;;19.95;9.90;;;;;;;10.69;84.61;98400.09;5303147;27;20049;-81
2023/01/05 01:54:50;;;;;;;19.17;9.35;;;;;;;10.61;84.44;98388.38;5338551;27;20049;-80
2023/01/05 01:57:17;;;;;;;17.05;8.38;;;;;;;10.71;84.87;98385.41;5338546;27;20035;-80
2023/01/05 01:59:44;;;;;;;19.15;8.68;;;;;;;10.02;88.04;98373.31;5339748;27;20024;-81
2023/01/05 02:02:12;;;;;;;18.87;8.95;;;;;;;9.43;92.27;98359.00;5337266;27;20025;-80
2023/01/05 02:04:39;;;;;;;20.40;9.68;;;;;;;9.43;92.56;98363.31;5320215;27;20025;-81
2023/01/05 02:07:07;;;;;;;20.50;9.43;;;;;;;9.41;92.48;98350.50;5336649;27;20043;-80
2023/01/05 02:09:34;;;;;;;20.02;9.88;;;;;;;9.35;93.51;98335.22;5328741;27;20060;-81
2023/01/05 02:12:51;;;;;;;20.77;9.35;;;;;;;9.40;92.05;98323.06;5325467;27;20048;-80
2023/01/05 02:15:35;;;;;;;19.40;8.90;;;;;;;9.70;91.19;98320.34;5329611;27;20066;-80
2023/01/05 02:18:30;;;;;;;20.65;8.88;;;;;;;9.55;91.43;98321.69;5340350;27;20028;-80
2023/01/05 02:21:09;;;;;;;22.17;10.32;;;;;;;9.26;93.26;98299.50;5339665;27;20071;-81
2023/01/05 02:24:12;;;;;;;20.23;9.98;;;;;;;10.16;88.86;98291.16;5340178;27;20027;-81
2023/01/05 02:27:02;;;;;;;20.88;9.27;;;;;;;10.60;86.17;98324.78;5336559;27;20029;-81
2023/01/05 02:29:38;;;;;;;19.23;9.07;;;;;;;10.90;84.15;98307.25;5339479;27;20033;-80
2023/01/05 02:32:05;;;;;;;18.17;8.38;;;;;;;10.73;84.08;98305.31;5339096;27;20025;-81
2023/01/05 02:34:35;;;;;;;;;;;;;;;10.58;85.33;98304.19;5340189;27;20716;-81
2023/01/05 02:37:14;;;;;;;17.62;8.55;;;;;;;10.30;87.00;98288.91;5339082;27;19932;-80
2023/01/05 02:39:56;;;;;;;19.58;8.60;;;;;;;9.50;91.00;98283.22;5320720;27;20072;-81
2023/01/05 02:42:25;;;;;;;18.85;9.10;;;;;;;10.11;87.96;98275.88;5338804;27;20063;-80
2023/01/05 02:44:52;;;;;;;16.30;7.87;;;;;;;9.48;91.52;98258.41;5319221;27;20063;-80
2023/01/05 02:47:24;;;;;;;16.52;7.97;;;;;;;9.64;91.61;98253.53;5338359;27;20025;-80
2023/01/05 02:49:56;;;;;;;16.48;7.55;;;;;;;9.33;93.19;98251.19;5338188;27;20041;-80
2023/01/05 02:52:24;;;;;;;18.48;7.85;;;;;;;9.15;93.92;98243.22;5339272;27;20026;-80
2023/01/05 02:54:57;;;;;;;18.52;8.45;;;;;;;9.15;95.25;98250.13;5319018;27;20112;-80
2023/01/05 03:00:28;;;;;;;15.27;7.18;;;;;;;9.35;93.15;98239.94;5323734;27;20073;-81
2023/01/05 03:03:00;;;;;;;15.02;6.50;;;;;;;9.42;92.90;98223.41;5320163;27;20025;-80
2023/01/05 03:05:32;;;;;;;17.20;8.07;;;;;;;9.37;92.94;98227.88;5319843;27;20021;-80
2023/01/05 03:08:09;;;;;;;18.98;8.48;;;;;;;9.46;92.03;98237.88;5339386;27;20063;-81
2023/01/05 03:13:40;;;;;;;17.58;8.63;;;;;;;9.11;93.46;98233.91;5322152;27;20029;-80
2023/01/05 03:16:09;;;;;;;20.20;8.38;;;;;;;8.93;94.69;98237.09;5339398;27;20035;-80
2023/01/05 03:21:26;;;;;;;18.90;8.20;;;;;;;8.88;94.32;98221.81;5323754;27;20081;-80
2023/01/05 03:35:33;;;;;;;19.40;8.77;;;;;;;8.76;94.40;98211.09;5338581;27;20025;-80
2023/01/05 03:38:24;;;;;;;18.55;8.65;;;;;;;8.91;94.30;98205.44;5338492;27;20051;-80
2023/01/05 03:40:53;;;;;;;19.65;9.02;;;;;;;9.08;93.80;98213.44;5338581;27;20024;-80
2023/01/05 03:43:20;;;;;;;18.83;7.95;;;;;;;8.88;94.63;98198.66;5318598;27;20033;-80
2023/01/05 03:45:53;;;;;;;20.10;8.43;;;;;;;8.60;96.29;98185.00;5336981;27;20036;-80
2023/01/05 03:48:22;;;;;;;19.90;9.20;;;;;;;8.53;96.77;98176.69;5338640;27;20022;-80
2023/01/05 03:50:49;;;;;;;19.17;8.55;;;;;;;8.54;97.04;98173.22;5319237;27;20024;-80
2023/01/05 03:53:16;;;;;;;22.40;9.60;;;;;;;8.57;96.33;98180.81;5337318;27;20030;-80
2023/01/05 03:55:42;;;;;;;21.52;10.10;;;;;;;8.46;96.95;98171.78;5338089;27;20026;-80
2023/01/05 03:58:09;;;;;;;;;;;;;;;8.21;98.57;98177.66;5338696;27;20021;-80
2023/01/05 04:00:38;;;;;;;21.60;9.48;;;;;;;8.40;97.69;98180.53;5338772;27;19933;-80
2023/01/05 04:03:05;;;;;;;20.55;10.30;;;;;;;8.38;97.80;98180.56;5337807;27;20060;-80
2023/01/05 04:05:32;;;;;;;23.38;10.27;;;;;;;8.05;100.00;98171.31;5338776;27;20043;-80
2023/01/05 04:07:59;;;;;;;;;;;;;;;8.01;100.00;98167.16;5338961;27;20074;-79
2023/01/05 04:10:27;;;;;;;22.60;10.82;;;;;;;8.35;98.88;98178.09;5339039;27;19936;-81
2023/01/05 04:12:54;;;;;;;21.33;10.65;;;;;;;8.49;97.36;98184.53;5339328;27;20033;-80
2023/01/05 04:15:20;;;;;;;21.55;10.40;;;;;;;8.48;97.27;98190.56;5338941;27;20024;-80
2023/01/05 04:17:47;;;;;;;;;;;;;;;8.78;95.82;98187.00;5339319;27;20067;-81
2023/01/05 04:20:16;;;;;;;21.70;10.07;;;;;;;8.85;93.03;98188.47;5339195;27;19978;-80
2023/01/05 04:22:43;;;;;;;23.12;10.55;;;;;;;8.74;94.45;98188.00;5338994;27;20036;-80
2023/01/05 04:25:10;;;;;;;;;;;;;;;9.10;91.80;98191.06;5339837;27;20036;-81
2023/01/05 04:27:37;;;;;;;23.50;10.63;;;;;;;9.63;88.73;98196.03;5338830;27;19974;-81
2023/01/05 04:30:04;;;;;;;24.98;10.85;;;;;;;9.48;88.07;98200.00;5333783;27;20025;-81
2023/01/05 04:32:31;;;;;;;22.45;11.05;;;;;;;9.75;87.15;98208.47;5324812;27;20106;-81
2023/01/05 04:34:58;;;;;;;22.92;10.88;;;;;;;9.68;87.27;98204.44;5330083;27;20040;-81
2023/01/05 04:37:38;;;;;;;23.08;11.57;;;;;;;9.66;86.83;98218.25;5339338;27;20069;-81
2023/01/05 04:40:08;;;;;;;23.20;11.00;;;;;;;9.96;86.73;98230.03;5320103;27;20044;-81
2023/01/05 04:42:34;;;;;;;22.52;10.57;;;;;;;10.87;81.01;98228.22;5338474;27;20031;-81
2023/01/05 04:45:01;;;;;;;;;;;;;;;9.86;84.22;98200.31;5339301;27;20021;-81
2023/01/05 04:47:28;;;;;;;23.15;11.20;;;;;;;9.86;84.88;98202.91;5338990;27;19941;-81
2023/01/05 04:50:05;;;;;;;;;;;;;;;9.86;85.83;98215.78;5338901;27;20022;-81
2023/01/05 04:52:32;;;;;;;21.67;10.68;;;;;;;10.12;84.52;98210.50;5339348;27;19950;-81
2023/01/05 04:54:59;;;;;;;24.85;11.27;;;;;;;10.57;82.15;98207.06;5338832;27;20028;-81
2023/01/05 04:57:26;;;;;;;22.58;10.25;;;;;;;10.68;80.87;98212.63;5337931;27;20098;-81
2023/01/05 04:59:56;;;;;;;22.40;9.93;;;;;;;10.61;81.95;98210.34;5338190;27;20025;-81
2023/01/05 05:02:23;;;;;;;22.67;10.77;;;;;;;11.15;78.18;98207.22;5338045;27;20029;-81
2023/01/05 05:04:50;;;;;;;22.75;10.30;;;;;;;10.81;79.89;98204.38;5338316;27;20040;-81
2023/01/05 05:07:17;;;;;;;21.10;10.07;;;;;;;11.46;76.31;98198.16;5337626;27;20022;-81
2023/01/05 05:09:51;;;;;;;20.30;10.35;;;;;;;10.64;80.58;98203.34;5338121;27;20059;-80
2023/01/05 05:12:19;;;;;;;20.90;9.95;;;;;;;10.65;80.41;98214.50;5338257;27;20057;-81
2023/01/05 05:14:47;;;;;;;20.65;10.43;;;;;;;11.66;75.87;98203.28;5338093;27;20022;-81
2023/01/05 05:17:15;;;;;;;21.42;9.90;;;;;;;11.44;76.97;98212.88;5338693;27;20025;-81
2023/01/05 05:19:42;;;;;;;22.62;10.45;;;;;;;11.45;77.66;98217.16;5340025;27;20021;-81
2023/01/05 05:22:10;;;;;;;20.60;10.27;;;;;;;12.08;75.00;98234.16;5339895;27;20043;-81
2023/01/05 05:24:36;;;;;;;20.83;9.95;;;;;;;12.74;70.92;98223.28;5339286;27;20022;-81
2023/01/05 05:27:03;;;;;;;19.67;9.73;;;;;;;12.22;72.72;98220.56;5339411;27;20026;-81
2023/01/05 05:29:30;;;;;;;22.35;9.63;;;;;;;12.69;70.83;98217.50;5339905;27;20025;-81
2023/01/05 05:31:57;;;;;;;18.52;9.73;;;;;;;12.50;71.23;98219.28;5339070;27;20025;-82
2023/01/05 05:34:24;;;;;;;17.73;9.43;;;;;;;12.22;72.76;98217.97;5340213;27;20039;-82
2023/01/05 05:36:51;;;;;;;18.83;8.95;;;;;;;12.27;71.53;98212.63;5340120;27;20108;-82
2023/01/05 05:39:18;;;;;;;19.05;9.45;;;;;;;12.54;69.87;98210.44;5321425;27;20068;-81
2023/01/05 05:41:48;;;;;;;19.52;8.57;;;;;;;11.92;73.16;98211.66;5339843;27;20077;-81
2023/01/05 05:44:15;;;;;;;19.23;9.32;;;;;;;11.29;75.09;98206.66;5339742;27;20028;-81
2023/01/05 05:46:42;;;;;;;18.67;8.70;;;;;;;12.15;72.60;98199.34;5338605;27;20074;-81
2023/01/05 05:49:09;;;;;;;17.23;8.60;;;;;;;11.55;74.45;98197.75;5337841;27;20021;-81
2023/01/05 05:51:36;;;;;;;17.50;7.97;;;;;;;11.96;72.46;98197.69;5337886;27;20026;-81
2023/01/05 05:54:03;;;;;;;18.05;7.87;;;;;;;12.07;72.72;98195.44;5338522;27;20076;-81
2023/01/05 05:56:30;;;;;;;17.12;7.50;;;;;;;11.56;75.59;98186.50;5337813;27;20068;-82
2023/01/05 05:58:56;;;;;;;15.88;7.68;;;;;;;11.42;75.03;98175.94;5338573;27;20041;-81
2023/01/05 06:01:27;;;;;;;16.58;7.32;;;;;;;11.22;77.53;98172.50;5337046;27;20028;-81
2023/01/05 06:03:55;;;;;;;13.98;6.90;;;;;;;11.73;74.95;98176.25;5338729;27;20066;-81
2023/01/05 06:06:21;;;;;;;14.90;6.28;;;;;;;12.29;71.53;98166.81;5337655;27;20057;-81
2023/01/05 06:08:49;;;;;;;14.00;6.40;;;;;;;12.33;71.85;98155.38;5337736;27;20022;-81
2023/01/05 06:11:17;;;;;;;13.13;6.12;;;;;;;11.74;74.26;98149.50;5338570;27;20049;-81
2023/01/05 06:13:44;;;;;;;15.95;6.45;;;;;;;12.20;71.89;98155.13;5336682;27;20070;-81
2023/01/05 06:16:11;;;;;;;12.93;5.72;;;;;;;11.76;73.69;98139.94;5337879;27;20078;-81
2023/01/05 06:18:38;;;;;;;13.98;5.95;;;;;;;10.98;77.04;98142.56;5335251;27;20075;-81
2023/01/05 06:21:05;;;;;;;;;;;;;;;11.08;77.60;98130.09;5336312;27;20079;-81
2023/01/05 06:23:32;;;;;;;12.47;5.30;;;;;;;11.11;77.65;98127.38;5334808;27;19945;-81
2023/01/05 06:25:59;;;;;;;;;;;;;;;11.44;76.21;98127.63;5334175;27;20052;-81
2023/01/05 06:28:26;;;;;;;11.30;4.87;;;;;;;11.48;75.38;98126.56;5333008;27;19936;-80
2023/01/05 06:30:53;;;;;;;12.82;5.20;;;;;;;11.35;75.91;98115.97;5332135;27;20065;-81
2023/01/05 06:33:20;;;;;;;12.37;4.93;;;;;;;11.76;73.96;98106.31;5330706;27;20025;-81
2023/01/05 06:35:47;;;;;;;11.32;5.00;;;;;;;11.67;73.46;98109.31;5329696;27;20061;-81
2023/01/05 06:38:15;;;;;;;12.73;5.57;;;;;;;11.60;74.35;98113.13;5330181;27;20138;-81
2023/01/05 06:40:43;;;;;;;11.93;5.30;;;;;;;11.53;74.29;98093.63;5330053;27;20123;-81
2023/01/05 06:43:11;;;;;;;12.73;5.50;;;;;;;11.32;74.92;98084.28;5328992;27;20115;-81
2023/01/05 06:45:37;;;;;;;11.90;5.30;;;;;;;10.85;78.42;98092.38;5329910;27;20063;-81
2023/01/05 06:48:05;;;;;;;13.35;6.28;;;;;;;10.08;82.47;98085.19;5329093;27;20026;-81
2023/01/05 06:50:34;;;;;;;13.50;5.75;;;;;;;10.36;81.38;98084.09;5332723;27;20061;-81
2023/01/05 06:53:02;;;;;;;13.75;5.87;;;;;;;10.60;80.67;98089.97;5327495;27;20095;-81
2023/01/05 06:55:29;;;;;;;14.35;6.15;;;;;;;10.55;80.72;98094.50;5324381;27;20430;-80
2023/01/05 06:57:56;;;;;;;13.43;5.43;;;;;;;10.64;80.08;98096.72;5330316;27;20040;-80
2023/01/05 07:00:27;;;;;;;16.33;6.03;;;;;;;10.54;80.99;98106.56;5329660;27;20078;-80
2023/01/05 07:02:54;;;;;;;15.40;6.35;;;;;;;10.24;81.87;98105.25;5327454;27;20092;-80
2023/01/05 07:05:23;;;;;;;15.20;6.70;;;;;;;10.22;82.21;98100.16;5330496;27;20063;-81
2023/01/05 07:07:50;;;;;;;15.10;6.43;;;;;;;10.53;80.47;98099.75;5327956;27;20049;-81
2023/01/05 07:10:17;;;;;;;20.30;7.82;;;;;;;10.25;80.15;98099.19;5327275;27;20130;-80
2023/01/05 07:12:44;;;;;;;20.65;8.20;;;;;;;10.48;78.52;98095.66;5328043;27;20073;-79
2023/01/05 07:15:11;;;;;;;19.20;9.35;;;;;;;10.68;76.95;98093.91;5327140;27;20097;-82
2023/01/05 07:17:38;;;;;;;19.48;9.32;;;;;;;10.45;77.57;98104.38;5326779;27;20045;-80
2023/01/05 07:20:06;;;;;;;20.40;9.60;;;;;;;10.18;78.97;98093.38;5325208;27;20427;-81
2023/01/05 07:22:33;;;;;;;18.48;9.32;;;;;;;9.57;82.47;98098.38;5324484;27;20061;-80
2023/01/05 07:25:00;;;;;;;19.65;9.13;;;;;;;9.96;81.46;98097.72;5324257;27;20399;-81
2023/01/05 07:27:27;;;;;;;20.92;9.35;;;;;;;9.87;82.63;98104.06;5324428;27;20092;-80
2023/01/05 07:29:54;;;;;;;;;;;;;;;9.77;83.61;98105.31;5324581;27;20072;-81
2023/01/05 07:32:21;;;;;;;19.98;8.85;;;;;;;9.32;86.98;98119.03;5324198;27;19968;-80
2023/01/05 07:34:47;;;;;;;;;;;;;;;9.26;87.81;98125.28;5325512;27;20049;-80
2023/01/05 07:37:23;;;;;;;18.20;8.65;;;;;;;9.27;88.04;98118.37;5326390;27;19963;-81
2023/01/05 07:39:51;;;;;;;20.90;9.15;;;;;;;9.57;86.34;98112.09;5326028;27;20125;-81
2023/01/05 07:42:18;;;;;;;19.95;9.27;;;;;;;9.09;89.73;98101.84;5325766;27;20060;-81
2023/01/05 07:44:45;;;;;;;19.60;8.98;;;;;;;9.26;89.47;98091.78;5326671;27;20045;-80
2023/01/05 07:47:11;;;;;;;;;;;;;;;9.34;88.78;98100.94;5325012;27;20052;-81
2023/01/05 07:49:38;;;;;;;20.27;9.23;;;;;;;9.66;87.44;98110.06;5324013;27;19975;-81
2023/01/05 07:52:05;;;;;;;;;;;;;;;9.78;86.74;98112.16;5324604;27;20111;-81
2023/01/05 07:54:32;;;;;;;18.00;8.18;;;;;;;10.04;84.08;98117.16;5324100;27;20228;-80
2023/01/05 07:56:59;;;;;;;19.48;9.55;;;;;;;9.84;85.59;98124.81;5325839;27;20070;-80
2023/01/05 07:59:26;;;;;;;19.17;9.57;;;;;;;9.48;87.35;98124.47;5326072;27;20052;-81
2023/01/05 08:01:53;;;;;;;22.17;10.23;;;;;;;9.66;86.53;98126.34;5324390;27;20071;-80
2023/01/05 08:04:20;;;;;;;21.10;9.50;;;;;;;9.44;87.30;98105.72;5324773;27;20105;-81
2023/01/05 08:06:46;;;;;;;20.15;9.98;;;;;;;9.55;87.24;98103.56;5313554;27;284564;-81
2023/01/05 08:11:59;;;;;;;20.60;9.20;;;;;;;10.01;85.53;98103.56;5324397;27;20021;-81
2023/01/05 08:14:25;;;;;;;;;;;;;;;10.91;81.50;98111.00;5324276;27;20049;-81
2023/01/05 08:16:52;;;;;;;19.30;9.20;;;;;;;10.69;81.33;98123.16;5331054;27;19956;-80
2023/01/05 08:19:19;;;;;;;22.15;9.68;;;;;;;10.39;83.66;98102.03;5328757;27;20043;-80
2023/01/05 08:21:46;;;;;;;;;;;;;;;10.03;84.75;98109.47;5307148;27;20079;-80
2023/01/05 08:24:13;;;;;;;18.50;8.43;;;;;;;10.32;85.09;98105.78;5325712;27;19964;-80
2023/01/05 08:26:40;;;;;;;17.83;9.00;;;;;;;10.49;83.80;98102.50;5325142;27;20063;-80
2023/01/05 08:29:07;;;;;;;20.95;9.20;;;;;;;10.34;84.61;98117.72;5326172;27;20115;-80
2023/01/05 08:31:36;;;;;;;19.67;8.77;;;;;;;10.06;85.95;98129.97;5324760;27;20060;-80
2023/01/05 08:34:04;;;;;;;19.55;8.82;;;;;;;9.32;89.31;98131.06;5324685;27;20057;-80
2023/01/05 08:36:31;;;;;;;21.40;9.82;;;;;;;9.57;88.87;98140.44;5325091;27;20094;-80
2023/01/05 08:39:00;;;;;;;18.42;8.88;;;;;;;9.60;88.24;98131.75;5324602;27;20487;-80
2023/01/05 08:41:30;;;;;;;19.08;9.18;;;;;;;9.61;88.04;98120.53;5324993;27;20111;-80
2023/01/05 08:44:02;;;;;;;19.30;8.27;;;;;;;9.95;87.51;98122.66;5325524;27;20021;-80
2023/01/05 08:46:32;;;;;;;21.60;9.82;;;;;;;9.53;88.27;98132.88;5323542;27;20055;-81
2023/01/05 08:49:00;;;;;;;19.77;9.57;;;;;;;9.77;89.70;98138.81;5323228;27;20061;-81
2023/01/05 08:51:28;;;;;;;18.35;9.30;;;;;;;11.33;80.40;98135.03;5324038;27;20118;-80
2023/01/05 08:53:55;;;;;;;18.50;8.70;;;;;;;11.57;77.70;98146.84;5324601;27;20379;-80
2023/01/05 08:56:25;;;;;;;17.95;8.35;;;;;;;10.81;82.36;98181.16;5324129;27;20057;-80
2023/01/05 08:58:58;;;;;;;16.67;8.00;;;;;;;10.12;86.09;98184.72;5324930;27;20026;-80
2023/01/05 09:01:25;;;;;;;17.48;8.10;;;;;;;9.79;89.13;98175.72;5323335;27;20111;-80
2023/01/05 09:03:52;;;;;;;18.98;8.80;;;;;;;10.26;87.07;98165.31;5324080;27;20048;-80
2023/01/05 09:06:19;;;;;;;17.62;8.48;;;;;;;10.59;84.96;98169.13;5324240;27;20437;-80
2023/01/05 09:08:47;;;;;;;18.05;8.38;;;;;;;10.90;82.87;98168.69;5324582;27;20123;-80
2023/01/05 09:11:24;;;;;;;17.70;8.48;;;;;;;11.07;81.77;98155.09;5327982;27;20065;-80
2023/01/05 09:13:58;;;;;;;;;;;;;;;11.33;81.71;98150.53;5332259;27;20407;-80
2023/01/05 09:16:28;;;;;;;15.38;7.65;;;;;;;11.58;80.44;98156.25;5309563;27;19969;-80
2023/01/05 09:19:15;;;;;;;17.48;7.70;;;;;;;12.00;77.81;98158.66;5327843;27;20061;-80
2023/01/05 09:21:43;;;;;;;16.35;7.37;;;;;;;11.50;80.70;98142.88;5327996;27;20694;-79
2023/01/05 09:24:14;;;;;;;14.80;6.30;;;;;;;11.79;79.66;98149.28;5336722;26;20049;-78
2023/01/05 09:26:41;;;;;;;16.10;7.15;;;;;;;11.33;81.37;98122.09;5331629;27;20056;-78
2023/01/05 09:29:09;;;;;;;14.55;7.20;;;;;;;10.65;85.05;98124.19;5330320;27;20122;-78
2023/01/05 09:31:39;;;;;;;17.52;7.75;;;;;;;11.12;83.24;98135.06;5308282;27;20107;-77
2023/01/05 09:34:06;;;;;;;14.32;6.68;;;;;;;11.03;83.96;98117.38;5332535;27;20024;-78
2023/01/05 09:36:33;;;;;;;13.82;6.05;;;;;;;11.54;81.90;98108.22;5330969;27;20432;-79
2023/01/05 09:39:00;;;;;;;13.10;6.50;;;;;;;11.06;82.53;98094.03;5335699;27;20053;-78
2023/01/05 09:41:32;;;;;;;12.48;5.80;;;;;;;11.41;80.93;98096.78;5327457;27;20061;-78
2023/01/05 09:44:06;;;;;;;13.52;6.30;;;;;;;11.30;81.78;98112.75;5333695;27;20025;-78
2023/01/05 09:46:37;;;;;;;16.90;6.78;;;;;;;11.74;79.82;98110.72;5331531;27;20730;-78
2023/01/05 09:49:06;;;;;;;18.30;6.65;;;;;;;12.42;76.38;98087.66;5328631;27;20030;-79
2023/01/05 09:51:34;;;;;;;14.30;5.82;;;;;;;12.29;76.93;98081.44;5311121;27;20628;-79
2023/01/05 09:54:02;;;;;;;15.75;6.50;;;;;;;12.84;74.68;98074.31;5328358;27;20055;-78
2023/01/05 09:56:36;;;;;;;15.38;7.78;;;;;;;12.45;76.13;98098.72;5326413;27;20057;-78
2023/01/05 09:59:44;;;;;;;15.80;7.80;;;;;;;11.77;79.60;98079.56;5310208;27;20048;-77
2023/01/05 10:02:26;;;;;;;19.02;8.15;;;;;;;11.95;80.40;98093.41;5305718;27;20714;-78
2023/01/05 10:04:54;;;;;;;16.60;7.90;;;;;;;11.74;81.33;98087.47;5333564;27;20130;-77
2023/01/05 10:07:24;;;;;;;15.35;7.68;;;;;;;11.73;81.51;98078.03;5312552;27;20486;-77
2023/01/05 10:09:52;;;;;;;17.45;8.23;;;;;;;11.56;81.82;98076.22;5338191;26;20037;-79
2023/01/05 10:13:05;;;;;;;17.90;8.02;;;;;;;11.70;81.45;98078.19;5311764;27;20036;-78
2023/01/05 10:15:41;;;;;;;17.00;7.57;;;;;;;11.83;80.42;98081.91;5333972;27;20087;-78
2023/01/05 10:18:10;;;;;;;15.50;7.33;;;;;;;11.43;83.56;98074.28;5311090;27;20056;-77
2023/01/05 10:21:01;;;;;;;17.83;7.90;;;;;;;11.64;82.52;98075.03;5314576;27;20419;-78
2023/01/05 10:23:38;;;;;;;13.82;6.82;;;;;;;11.45;82.94;98069.88;5325772;27;20061;-79
2023/01/05 10:26:24;;;;;;;14.73;6.20;;;;;;;10.92;85.15;98057.63;5305241;27;20068;-78
2023/01/05 10:28:59;;;;;;;16.02;6.75;;;;;;;10.97;85.35;98045.38;5323216;27;20052;-78
2023/01/05 10:31:47;;;;;;;17.15;7.82;;;;;;;10.89;85.62;98037.97;5305215;27;20068;-78
2023/01/05 10:34:53;;;;;;;15.25;7.55;;;;;;;11.27;83.91;98025.06;5305644;27;20404;-79
2023/01/05 10:37:34;;;;;;;17.17;7.85;;;;;;;11.34;83.40;98020.47;5323928;27;20063;-79
2023/01/05 10:40:03;;;;;;;17.08;7.93;;;;;;;11.46;84.16;98027.63;5323793;27;20122;-78
2023/01/05 10:42:45;;;;;;;16.10;7.65;;;;;;;11.69;82.66;98014.47;5326234;27;20025;-79
2023/01/05 10:45:17;;;;;;;18.17;7.70;;;;;;;11.44;83.76;98011.37;5324342;27;20486;-79
2023/01/05 10:47:44;;;;;;;16.80;7.95;;;;;;;11.76;81.79;98000.34;5327339;27;20029;-78
2023/01/05 10:50:35;;;;;;;14.30;6.80;;;;;;;11.94;81.15;97987.47;5306517;27;20055;-78
2023/01/05 10:53:23;;;;;;;14.87;6.65;;;;;;;11.98;80.58;97989.81;5326216;27;20516;-79
2023/01/05 10:55:56;;;;;;;14.48;6.70;;;;;;;12.14;79.91;97995.09;5304114;27;20045;-79
2023/01/05 10:58:28;;;;;;;15.18;6.82;;;;;;;11.84;81.25;98006.03;5325764;27;20098;-78
2023/01/05 11:01:02;;;;;;;14.07;6.03;;;;;;;11.66;82.01;98014.63;5305125;27;20098;-78
2023/01/05 11:03:34;;;;;;;15.43;6.65;;;;;;;11.47;82.63;98016.38;5329862;27;20068;-78
2023/01/05 11:06:24;;;;;;;16.62;6.78;;;;;;;11.93;80.32;98024.59;5328272;27;20075;-78
2023/01/05 11:08:51;;;;;;;16.00;7.20;;;;;;;12.40;78.76;98007.53;5324526;27;20087;-79
2023/01/05 11:11:24;;;;;;;15.95;7.60;;;;;;;12.70;77.04;98007.72;5306543;27;20045;-79
2023/01/05 11:13:57;;;;;;;15.23;6.95;;;;;;;12.20;79.89;98012.03;5286241;27;20386;-78
2023/01/05 11:16:33;;;;;;;14.75;6.93;;;;;;;11.78;82.04;98013.19;5304124;27;20069;-77
2023/01/05 11:19:03;;;;;;;14.40;6.35;;;;;;;11.69;82.00;98013.63;5309260;27;20052;-77
2023/01/05 11:21:36;;;;;;;16.35;8.25;;;;;;;11.75;81.36;98013.34;5325807;27;20049;-77
2023/01/05 11:24:04;;;;;;;16.60;7.30;;;;;;;11.64;81.84;98021.59;5325677;27;20418;-77
2023/01/05 11:26:38;;;;;;;13.82;6.32;;;;;;;11.64;81.75;98019.03;5323740;27;20087;-79
2023/01/05 11:29:07;;;;;;;15.05;7.03;;;;;;;11.75;80.67;98015.94;5309018;27;20106;-81
2023/01/05 11:31:57;;;;;;;15.57;6.47;;;;;;;12.24;78.80;98026.50;5304225;27;20106;-80
2023/01/05 11:34:46;;;;;;;15.65;7.07;;;;;;;12.48;76.68;98014.09;5324111;27;20060;-80
2023/01/05 11:37:26;;;;;;;13.75;6.30;;;;;;;12.78;75.74;98014.25;5304140;27;20065;-80
2023/01/05 11:39:58;;;;;;;14.45;6.10;;;;;;;13.23;73.19;98000.66;5304512;27;20063;-80
2023/01/05 11:42:25;;;;;;;14.25;5.72;;;;;;;13.53;70.95;98000.75;5324611;27;20102;-81
2023/01/05 11:45:21;;;;;;;13.70;5.95;;;;;;;13.56;71.58;98005.75;5323764;27;20117;-80
2023/01/05 11:48:04;;;;;;;12.27;5.40;;;;;;;13.77;70.35;97996.78;5304128;27;20061;-80
2023/01/05 11:50:41;;;;;;;13.50;5.53;;;;;;;14.05;69.36;97984.84;5304348;27;20493;-80
2023/01/05 11:53:20;;;;;;;12.23;5.22;;;;;;;13.81;70.65;97987.03;5304171;27;20053;-81
2023/01/05 11:55:59;;;;;;;11.95;5.30;;;;;;;14.48;67.33;97979.75;5323773;27;20464;-85
2023/01/05 11:58:32;;;;;;;13.48;5.97;;;;;;;15.08;64.70;97993.38;5304152;27;20065;-86
2023/01/05 12:01:41;;;;;;;13.18;5.22;;;;;;;15.13;64.19;98021.69;5323761;27;20056;-86
2023/01/05 12:04:23;;;;;;;11.73;5.60;;;;;;;15.41;64.00;98042.41;5323359;27;20045;-86
2023/01/05 12:06:54;;;;;;;12.48;5.68;;;;;;;15.63;62.89;98052.38;5323487;27;20119;-85
2023/01/05 12:09:38;;;;;;;12.40;5.68;;;;;;;15.42;62.21;98058.84;5304180;27;20127;-86
2023/01/05 12:12:14;;;;;;;16.05;7.40;;;;;;;15.75;61.43;98111.41;5303641;27;20053;-85
2023/01/05 12:15:03;;;;;;;17.30;7.82;;;;;;;16.38;60.42;98126.47;5323590;27;20044;-86
2023/01/05 12:18:07;;;;;;;12.43;4.70;;;;;;;15.01;65.74;98104.66;5303978;27;20629;-85
2023/01/05 12:20:53;;;;;;;11.15;4.32;;;;;;;13.69;73.68;98109.59;5289237;27;20053;-85
2023/01/05 12:23:28;;;;;;;9.30;3.67;;;;;;;12.45;77.80;98118.59;5324335;27;20109;-82
2023/01/05 12:26:43;;;;;;;10.25;3.50;;;;;;;12.83;73.09;98124.44;5324107;27;20045;-82